Time;durP1;ratioP1;P1;durP2;ratioP2;P2;SDS_P1;SDS_P2;PMS_P1;PMS_P2;Temp;Humidity;BMP_temperature;BMP_pressure;BME280_temperature;BME280_humidity;BME280_pressure;Samples;Min_cycle;Max_cycle;Signal;HPM_P1;HPM_P2
2023/10/29 00:00:42;;;;;;;;;;;;;;;;;;6290109;28;19912;-78
2023/10/29 00:03:42;;;;;;;;;;;;;;;;;;6290172;28;19957;-78
2023/10/29 00:06:42;;;;;;;;;;;;;;;;;;6283698;28;19913;-79
2023/10/29 00:09:42;;;;;;;;;;;;;;;;;;6283621;28;19908;-79
2023/10/29 00:12:42;;;;;;;;;;;;;;;;;;6286497;28;19913;-78
2023/10/29 00:15:42;;;;;;;;;;;;;;;;;;6287149;28;20400;-79
2023/10/29 00:18:43;;;;;;;;;;;;;;;;;;6293605;28;20008;-78
2023/10/29 00:21:43;;;;;;;;;;;;;;;;;;6284118;28;19925;-78
2023/10/29 00:24:43;;;;;;;;;;;;;;;;;;6276398;28;19920;-78
2023/10/29 00:27:43;;;;;;;;;;;;;;;;;;6283549;28;20342;-78
2023/10/29 00:30:43;;;;;;;;;;;;;;;;;;6294388;28;19918;-78
2023/10/29 00:33:43;;;;;;;;;;;;;;;;;;6276841;28;19912;-78
2023/10/29 00:36:43;;;;;;;;;;;;;;;;;;6283708;28;19923;-78
2023/10/29 00:39:43;;;;;;;;;;;;;;;;;;6285870;28;20248;-79
2023/10/29 00:42:44;;;;;;;;;;;;;;;;;;6289544;28;19908;-79
2023/10/29 00:45:44;;;;;;;;;;;;;;;;;;6285496;28;20355;-79
2023/10/29 00:48:44;;;;;;;;;;;;;;;;;;6271866;28;20346;-79
2023/10/29 00:51:44;;;;;;;;;;;;;;;;;;6272853;28;20388;-79
2023/10/29 00:54:44;;;;;;;;;;;;;;;;;;6273164;28;20390;-79
2023/10/29 00:57:44;;;;;;;;;;;;;;;;;;6269041;28;20452;-79
2023/10/29 01:00:44;;;;;;;;;;;;;;;;;;6299835;28;19934;-79
2023/10/29 01:03:44;;;;;;;;;;;;;;;;;;6286652;28;19912;-78
2023/10/29 01:06:46;;;;;;;;;;;;;;;;;;6285336;28;19916;-78
2023/10/29 01:09:46;;;;;;;;;;;;;;;;;;6275548;28;20298;-78
2023/10/29 01:12:46;;;;;;;;;;;;;;;;;;6293164;28;19912;-79
2023/10/29 01:15:46;;;;;;;;;;;;;;;;;;6282854;28;19919;-79
2023/10/29 01:18:47;;;;;;;;;;;;;;;;;;6270686;28;19916;-79
2023/10/29 01:21:47;;;;;;;;;;;;;;;;;;6268092;28;19963;-79
2023/10/29 01:24:47;;;;;;;;;;;;;;;;;;6275975;28;19936;-79
2023/10/29 01:27:47;;;;;;;;;;;;;;;;;;6281394;28;19944;-79
2023/10/29 01:30:47;;;;;;;;;;;;;;;;;;6271940;28;20358;-79
2023/10/29 01:33:47;;;;;;;;;;;;;;;;;;6270631;28;19913;-79
2023/10/29 01:36:47;;;;;;;;;;;;;;;;;;6276472;28;19923;-79
2023/10/29 01:39:47;;;;;;;;;;;;;;;;;;6285654;28;19934;-79
2023/10/29 01:42:49;;;;;;;;;;;;;;;;;;6285092;28;19955;-79
2023/10/29 01:45:49;;;;;;;;;;;;;;;;;;6294804;28;20293;-79
2023/10/29 01:48:50;;;;;;;;;;;;;;;;;;6279232;28;20387;-79
2023/10/29 01:51:50;;;;;;;;;;;;;;;;;;6277565;28;19913;-79
2023/10/29 01:54:50;;;;;;;;;;;;;;;;;;6275419;28;20015;-79
2023/10/29 01:57:50;;;;;;;;;;;;;;;;;;6272516;28;20388;-79
2023/10/29 02:00:54;;;;;;;;;;;;;;;;;;6286125;28;20354;-79
2023/10/29 02:03:55;;;;;;;;;;;;;;;;;;6274274;28;20379;-79
2023/10/29 02:06:55;;;;;;;;;;;;;;;;;;6289406;28;19919;-79
2023/10/29 02:09:55;;;;;;;;;;;;;;;;;;6278335;28;20337;-79
2023/10/29 02:12:55;;;;;;;;;;;;;;;;;;6288074;28;20447;-79
2023/10/29 02:15:55;;;;;;;;;;;;;;;;;;6286902;28;19967;-79
2023/10/29 02:18:55;;;;;;;;;;;;;;;;;;6271538;28;20461;-79
2023/10/29 02:21:55;;;;;;;;;;;;;;;;;;6270203;28;20433;-79
2023/10/29 02:24:55;;;;;;;;;;;;;;;;;;6273733;28;19917;-79
2023/10/29 02:27:56;;;;;;;;;;;;;;;;;;6279168;28;19942;-79
2023/10/29 02:30:56;;;;;;;;;;;;;;;;;;6291801;28;19912;-79
2023/10/29 02:33:56;;;;;;;;;;;;;;;;;;6292827;28;19966;-78
2023/10/29 02:36:56;;;;;;;;;;;;;;;;;;6290526;28;19927;-79
2023/10/29 02:39:56;;;;;;;;;;;;;;;;;;6289226;28;19912;-78
2023/10/29 02:42:56;;;;;;;;;;;;;;;;;;6297483;28;19912;-79
2023/10/29 02:45:56;;;;;;;;;;;;;;;;;;6296485;28;19913;-79
2023/10/29 02:48:56;;;;;;;;;;;;;;;;;;6283984;28;19920;-79
2023/10/29 02:51:57;;;;;;;;;;;;;;;;;;6294175;28;19923;-78
2023/10/29 02:54:57;;;;;;;;;;;;;;;;;;6280969;28;19916;-78
2023/10/29 02:57:57;;;;;;;;;;;;;;;;;;6289965;28;19971;-78
2023/10/29 03:00:57;;;;;;;;;;;;;;;;;;6290624;28;19916;-78
2023/10/29 03:03:57;;;;;;;;;;;;;;;;;;6296469;28;19970;-78
2023/10/29 03:06:57;;;;;;;;;;;;;;;;;;6295934;28;20618;-86
2023/10/29 03:09:57;;;;;;;;;;;;;;;;;;6297949;28;19919;-85
2023/10/29 03:12:57;;;;;;;;;;;;;;;;;;6296226;28;19920;-86
2023/10/29 03:15:57;;;;;;;;;;;;;;;;;;6291474;28;19909;-85
2023/10/29 03:18:58;;;;;;;;;;;;;;;;;;6277547;28;20012;-78
2023/10/29 03:21:58;;;;;;;;;;;;;;;;;;6276023;28;19913;-78
2023/10/29 03:24:58;;;;;;;;;;;;;;;;;;6272216;28;19919;-78
2023/10/29 03:27:58;;;;;;;;;;;;;;;;;;6288785;28;19919;-78
2023/10/29 03:30:58;;;;;;;;;;;;;;;;;;6280364;28;19928;-78
2023/10/29 03:33:58;;;;;;;;;;;;;;;;;;6284422;28;19913;-78
2023/10/29 03:36:58;;;;;;;;;;;;;;;;;;6286022;28;19982;-78
2023/10/29 03:39:58;;;;;;;;;;;;;;;;;;6286803;28;19913;-78
2023/10/29 03:42:59;;;;;;;;;;;;;;;;;;6277092;28;19913;-78
2023/10/29 03:45:59;;;;;;;;;;;;;;;;;;6286642;28;19917;-78
2023/10/29 03:48:59;;;;;;;;;;;;;;;;;;6287425;28;19908;-78
2023/10/29 03:52:00;;;;;;;;;;;;;;;;;;6292123;28;20390;-79
2023/10/29 03:55:00;;;;;;;;;;;;;;;;;;6287472;28;19942;-79
2023/10/29 03:58:00;;;;;;;;;;;;;;;;;;6288710;28;19920;-79
2023/10/29 04:01:01;;;;;;;;;;;;;;;;;;6289235;28;19970;-79
2023/10/29 04:04:01;;;;;;;;;;;;;;;;;;6286744;28;20006;-79
2023/10/29 04:07:01;;;;;;;;;;;;;;;;;;6288841;28;19919;-79
2023/10/29 04:10:02;;;;;;;;;;;;;;;;;;6281819;28;20413;-79
2023/10/29 04:13:02;;;;;;;;;;;;;;;;;;6276344;28;19912;-79
2023/10/29 04:16:02;;;;;;;;;;;;;;;;;;6272930;28;20395;-79
2023/10/29 04:19:03;;;;;;;;;;;;;;;;;;6273611;28;19955;-79
2023/10/29 04:22:03;;;;;;;;;;;;;;;;;;6290088;28;19962;-79
2023/10/29 04:25:03;;;;;;;;;;;;;;;;;;6284938;28;19958;-79
2023/10/29 04:28:03;;;;;;;;;;;;;;;;;;6294078;28;19909;-79
2023/10/29 04:31:04;;;;;;;;;;;;;;;;;;6286024;28;19962;-79
2023/10/29 04:34:04;;;;;;;;;;;;;;;;;;6290171;28;19917;-79
2023/10/29 04:37:04;;;;;;;;;;;;;;;;;;6281729;28;20298;-85
2023/10/29 04:40:04;;;;;;;;;;;;;;;;;;6288596;28;19920;-85
2023/10/29 04:43:04;;;;;;;;;;;;;;;;;;6274712;28;19954;-85
2023/10/29 04:46:04;;;;;;;;;;;;;;;;;;6286101;28;20294;-85
2023/10/29 04:49:04;;;;;;;;;;;;;;;;;;6285180;28;20186;-85
2023/10/29 04:52:05;;;;;;;;;;;;;;;;;;6287949;28;19917;-86
2023/10/29 04:55:05;;;;;;;;;;;;;;;;;;6285834;28;20003;-85
2023/10/29 04:58:05;;;;;;;;;;;;;;;;;;6284170;28;20443;-85
2023/10/29 05:01:05;;;;;;;;;;;;;;;;;;6284472;28;19909;-85
2023/10/29 05:04:05;;;;;;;;;;;;;;;;;;6287074;28;19917;-85
2023/10/29 05:07:05;;;;;;;;;;;;;;;;;;6285967;28;19967;-86
2023/10/29 05:10:06;;;;;;;;;;;;;;;;;;6286323;28;20366;-85
2023/10/29 05:13:06;;;;;;;;;;;;;;;;;;6283204;28;19971;-86
2023/10/29 05:16:06;;;;;;;;;;;;;;;;;;6282109;28;19912;-85
2023/10/29 05:19:07;;;;;;;;;;;;;;;;;;6285567;28;19971;-85
2023/10/29 05:22:07;;;;;;;;;;;;;;;;;;6275305;28;20295;-85
2023/10/29 05:25:07;;;;;;;;;;;;;;;;;;6287421;28;19912;-85
2023/10/29 05:28:07;;;;;;;;;;;;;;;;;;6286263;28;19917;-86
2023/10/29 05:31:07;;;;;;;;;;;;;;;;;;6284967;28;19912;-85
2023/10/29 05:34:07;;;;;;;;;;;;;;;;;;6276906;28;19999;-85
2023/10/29 05:37:07;;;;;;;;;;;;;;;;;;6295827;28;19916;-85
2023/10/29 05:40:09;;;;;;;;;;;;;;;;;;6287941;28;19979;-85
2023/10/29 05:43:09;;;;;;;;;;;;;;;;;;6290725;28;20002;-85
2023/10/29 05:46:09;;;;;;;;;;;;;;;;;;6289198;28;20279;-79
2023/10/29 05:49:10;;;;;;;;;;;;;;;;;;6284173;28;19913;-79
2023/10/29 05:52:10;;;;;;;;;;;;;;;;;;6279191;28;19984;-79
2023/10/29 05:55:10;;;;;;;;;;;;;;;;;;6286433;28;19922;-79
2023/10/29 05:58:10;;;;;;;;;;;;;;;;;;6283204;28;20313;-79
2023/10/29 06:01:11;;;;;;;;;;;;;;;;;;6283771;28;19913;-79
2023/10/29 06:04:11;;;;;;;;;;;;;;;;;;6290372;28;19912;-79
2023/10/29 06:07:11;;;;;;;;;;;;;;;;;;6293113;28;19952;-85
2023/10/29 06:10:12;;;;;;;;;;;;;;;;;;6295827;28;19912;-85
2023/10/29 06:13:12;;;;;;;;;;;;;;;;;;6292640;28;19972;-85
2023/10/29 06:16:12;;;;;;;;;;;;;;;;;;6295589;28;19913;-85
2023/10/29 06:19:12;;;;;;;;;;;;;;;;;;6297605;28;19943;-84
2023/10/29 06:22:12;;;;;;;;;;;;;;;;;;6309250;28;19912;-85
2023/10/29 06:25:12;;;;;;;;;;;;;;;;;;6318749;28;19916;-85
2023/10/29 06:28:13;;;;;;;;;;;;;;;;;;6313692;28;19913;-84
2023/10/29 06:31:13;;;;;;;;;;;;;;;;;;6313989;28;19908;-83
2023/10/29 06:34:13;;;;;;;;;;;;;;;;;;6321322;28;19909;-85
2023/10/29 06:37:13;;;;;;;;;;;;;;;;;;6323177;28;19947;-84
2023/10/29 06:40:13;;;;;;;;;;;;;;;;;;6318942;28;20285;-85
2023/10/29 06:43:13;;;;;;;;;;;;;;;;;;6308038;28;19940;-85
2023/10/29 06:46:15;;;;;;;;;;;;;;;;;;6314060;28;19991;-84
2023/10/29 06:49:15;;;;;;;;;;;;;;;;;;6295660;28;19920;-85
2023/10/29 06:52:15;;;;;;;;;;;;;;;;;;6291208;28;19927;-85
2023/10/29 06:55:15;;;;;;;;;;;;;;;;;;6280192;28;20013;-85
2023/10/29 06:58:15;;;;;;;;;;;;;;;;;;6282245;28;19930;-85
2023/10/29 07:01:15;;;;;;;;;;;;;;;;;;6281308;28;19923;-85
2023/10/29 07:04:16;;;;;;;;;;;;;;;;;;6282428;28;19916;-85
2023/10/29 07:07:17;;;;;;;;;;;;;;;;;;6276721;28;19913;-85
2023/10/29 07:10:18;;;;;;;;;;;;;;;;;;6287493;28;19948;-85
2023/10/29 07:13:18;;;;;;;;;;;;;;;;;;6280840;28;19912;-84
2023/10/29 07:16:18;;;;;;;;;;;;;;;;;;6292247;28;19917;-84
2023/10/29 07:19:18;;;;;;;;;;;;;;;;;;6290095;28;19939;-86
2023/10/29 07:22:18;;;;;;;;;;;;;;;;;;6299883;28;19923;-85
2023/10/29 07:25:18;;;;;;;;;;;;;;;;;;6295040;28;19913;-85
2023/10/29 07:28:18;;;;;;;;;;;;;;;;;;6295988;28;19923;-85
2023/10/29 07:31:19;;;;;;;;;;;;;;;;;;6292312;28;20033;-86
2023/10/29 07:34:19;;;;;;;;;;;;;;;;;;6300829;28;19913;-86
2023/10/29 07:37:19;;;;;;;;;;;;;;;;;;6293615;28;19916;-80
2023/10/29 07:40:19;;;;;;;;;;;;;;;;;;6288455;28;19919;-79
2023/10/29 07:43:19;;;;;;;;;;;;;;;;;;6285153;28;19950;-79
2023/10/29 07:46:20;;;;;;;;;;;;;;;;;;6284676;28;19908;-79
2023/10/29 07:49:20;;;;;;;;;;;;;;;;;;6284382;28;19916;-79
2023/10/29 07:52:20;;;;;;;;;;;;;;;;;;6285365;28;20271;-79
2023/10/29 07:55:20;;;;;;;;;;;;;;;;;;6280168;28;19986;-79
2023/10/29 07:58:21;;;;;;;;;;;;;;;;;;6274388;28;21046;-79
2023/10/29 08:01:22;;;;;;;;;;;;;;;;;;6275058;28;19913;-79
2023/10/29 08:04:22;;;;;;;;;;;;;;;;;;6289373;28;19912;-79
2023/10/29 08:07:22;;;;;;;;;;;;;;;;;;6286842;28;19913;-79
2023/10/29 08:10:24;;;;;;;;;;;;;;;;;;6275127;28;19920;-79
2023/10/29 08:13:24;;;;;;;;;;;;;;;;;;6280675;28;19909;-78
2023/10/29 08:16:24;;;;;;;;;;;;;;;;;;6284540;28;20420;-78
2023/10/29 08:19:26;;;;;;;;;;;;;;;;;;6275770;28;20399;-77
2023/10/29 08:22:27;;;;;;;;;;;;;;;;;;6291093;28;20333;-78
2023/10/29 08:25:27;;;;;;;;;;;;;;;;;;6282890;28;19917;-78
2023/10/29 08:28:27;;;;;;;;;;;;;;;;;;6295158;28;19923;-78
2023/10/29 08:31:27;;;;;;;;;;;;;;;;;;6285643;28;19965;-78
2023/10/29 08:34:28;;;;;;;;;;;;;;;;;;6278271;28;19913;-78
2023/10/29 08:37:28;;;;;;;;;;;;;;;;;;6280557;28;19961;-78
2023/10/29 08:40:28;;;;;;;;;;;;;;;;;;6290328;28;19917;-78
2023/10/29 08:43:28;;;;;;;;;;;;;;;;;;6294452;28;19913;-78
2023/10/29 08:46:28;;;;;;;;;;;;;;;;;;6292564;28;19908;-78
2023/10/29 08:49:28;;;;;;;;;;;;;;;;;;6283882;28;19970;-79
2023/10/29 08:52:28;;;;;;;;;;;;;;;;;;6278473;28;19908;-78
2023/10/29 08:55:29;;;;;;;;;;;;;;;;;;6287297;28;19908;-78
2023/10/29 08:58:29;;;;;;;;;;;;;;;;;;6289490;28;20434;-88
2023/10/29 09:01:29;;;;;;;;;;;;;;;;;;6290591;28;19917;-87
2023/10/29 09:04:29;;;;;;;;;;;;;;;;;;6291703;28;19912;-87
2023/10/29 09:07:29;;;;;;;;;;;;;;;;;;6290532;28;19912;-78
2023/10/29 09:10:29;;;;;;;;;;;;;;;;;;6282418;28;19908;-78
2023/10/29 09:13:30;;;;;;;;;;;;;;;;;;6287355;28;19913;-77
2023/10/29 09:16:30;;;;;;;;;;;;;;;;;;6278564;28;19912;-78
2023/10/29 09:19:30;;;;;;;;;;;;;;;;;;6281067;28;19917;-78
2023/10/29 09:22:30;;;;;;;;;;;;;;;;;;6290474;28;19919;-78
2023/10/29 09:25:30;;;;;;;;;;;;;;;;;;6274838;28;19917;-79
2023/10/29 09:28:30;;;;;;;;;;;;;;;;;;6288475;28;19966;-78
2023/10/29 09:31:30;;;;;;;;;;;;;;;;;;6278518;28;19978;-79
2023/10/29 09:34:32;;;;;;;;;;;;;;;;;;6283978;28;19923;-78
2023/10/29 09:37:34;;;;;;;;;;;;;;;;;;6274190;28;19940;-79
2023/10/29 09:40:34;;;;;;;;;;;;;;;;;;6293688;28;19913;-78
2023/10/29 09:43:34;;;;;;;;;;;;;;;;;;6289349;28;19999;-78
2023/10/29 09:46:34;;;;;;;;;;;;;;;;;;6282077;28;19912;-79
2023/10/29 09:49:35;;;;;;;;;;;;;;;;;;6291755;28;19934;-78
2023/10/29 09:52:35;;;;;;;;;;;;;;;;;;6285859;28;19920;-79
2023/10/29 09:55:35;;;;;;;;;;;;;;;;;;6287123;28;19923;-79
2023/10/29 09:58:35;;;;;;;;;;;;;;;;;;6286755;28;19946;-78
2023/10/29 10:01:37;;;;;;;;;;;;;;;;;;6279187;28;20310;-78
2023/10/29 10:04:38;;;;;;;;;;;;;;;;;;6270568;28;19917;-78
2023/10/29 10:07:38;;;;;;;;;;;;;;;;;;6282616;28;19923;-76
2023/10/29 10:10:38;;;;;;;;;;;;;;;;;;6274890;28;19913;-78
2023/10/29 10:13:38;;;;;;;;;;;;;;;;;;6273532;28;20375;-78
2023/10/29 10:16:39;;;;;;;;;;;;;;;;;;6278112;28;20299;-77
2023/10/29 10:19:39;;;;;;;;;;;;;;;;;;6278851;28;19916;-77
2023/10/29 10:22:43;;;;;;;;;;;;;;;;;;6284340;28;19947;-78
2023/10/29 10:25:43;;;;;;;;;;;;;;;;;;6278293;28;20370;-77
2023/10/29 10:28:43;;;;;;;;;;;;;;;;;;6294707;28;19974;-89
2023/10/29 10:31:43;;;;;;;;;;;;;;;;;;6298531;28;20008;-87
2023/10/29 10:34:43;;;;;;;;;;;;;;;;;;6295524;28;20496;-89
2023/10/29 10:37:43;;;;;;;;;;;;;;;;;;6300495;28;19921;-89
2023/10/29 10:40:44;;;;;;;;;;;;;;;;;;6293852;28;19916;-90
2023/10/29 10:43:44;;;;;;;;;;;;;;;;;;6317099;28;19905;-89
2023/10/29 10:46:44;;;;;;;;;;;;;;;;;;6318960;28;19920;-89
2023/10/29 10:49:44;;;;;;;;;;;;;;;;;;6321781;28;19928;-90
2023/10/29 10:52:44;;;;;;;;;;;;;;;;;;6318386;28;20000;-89
2023/10/29 10:55:44;;;;;;;;;;;;;;;;;;6310087;28;19927;-87
2023/10/29 10:58:45;;;;;;;;;;;;;;;;;;6309615;28;19926;-87
2023/10/29 11:01:45;;;;;;;;;;;;;;;;;;6327148;28;19916;-87
2023/10/29 11:04:46;;;;;;;;;;;;;;;;;;6312439;28;19980;-89
2023/10/29 11:07:46;;;;;;;;;;;;;;;;;;6317144;28;19901;-88
2023/10/29 11:10:46;;;;;;;;;;;;;;;;;;6302321;28;19913;-89
2023/10/29 11:13:46;;;;;;;;;;;;;;;;;;6314220;28;20357;-89
2023/10/29 11:16:47;;;;;;;;;;;;;;;;;;6302368;28;19987;-88
2023/10/29 11:19:47;;;;;;;;;;;;;;;;;;6331172;28;19912;-88
2023/10/29 11:22:47;;;;;;;;;;;;;;;;;;6315439;28;19936;-89
2023/10/29 11:25:47;;;;;;;;;;;;;;;;;;6306562;28;19975;-87
2023/10/29 11:28:47;;;;;;;;;;;;;;;;;;6323190;28;19931;-89
2023/10/29 11:31:48;;;;;;;;;;;;;;;;;;6301548;28;19912;-89
2023/10/29 11:34:48;;;;;;;;;;;;;;;;;;6299966;28;19912;-89
2023/10/29 11:37:48;;;;;;;;;;;;;;;;;;6283711;28;20430;-79
2023/10/29 11:40:53;;;;;;;;;;;;;;;;;;6282978;28;19916;-78
2023/10/29 11:43:53;;;;;;;;;;;;;;;;;;6288499;28;19916;-78
2023/10/29 11:46:53;;;;;;;;;;;;;;;;;;6283259;28;20007;-78
2023/10/29 11:49:53;;;;;;;;;;;;;;;;;;6284086;28;20306;-78
2023/10/29 11:52:53;;;;;;;;;;;;;;;;;;6284506;28;19919;-78
2023/10/29 11:55:57;;;;;;;;;;;;;;;;;;6288956;28;20015;-78
2023/10/29 11:58:57;;;;;;;;;;;;;;;;;;6292422;28;19928;-78
2023/10/29 12:01:57;;;;;;;;;;;;;;;;;;6288880;28;20379;-78
2023/10/29 12:04:57;;;;;;;;;;;;;;;;;;6284606;28;19913;-78
2023/10/29 12:07:57;;;;;;;;;;;;;;;;;;6278944;28;19912;-78
2023/10/29 12:10:58;;;;;;;;;;;;;;;;;;6295710;28;20391;-78
2023/10/29 12:13:58;;;;;;;;;;;;;;;;;;6286899;28;19912;-78
2023/10/29 12:16:58;;;;;;;;;;;;;;;;;;6284259;28;20404;-78
2023/10/29 12:19:58;;;;;;;;;;;;;;;;;;6293169;28;20003;-78
2023/10/29 12:23:00;;;;;;;;;;;;;;;;;;6284452;28;19942;-78
2023/10/29 12:26:01;;;;;;;;;;;;;;;;;;6286809;28;20024;-78
2023/10/29 12:29:01;;;;;;;;;;;;;;;;;;6287633;28;19913;-78
2023/10/29 12:32:01;;;;;;;;;;;;;;;;;;6279110;28;19961;-78
2023/10/29 12:35:01;;;;;;;;;;;;;;;;;;6280043;28;19912;-78
2023/10/29 12:38:01;;;;;;;;;;;;;;;;;;6287963;28;19920;-78
2023/10/29 12:41:02;;;;;;;;;;;;;;;;;;6280541;28;19912;-78
2023/10/29 12:44:02;;;;;;;;;;;;;;;;;;6287750;28;19913;-78
2023/10/29 12:47:03;;;;;;;;;;;;;;;;;;6290397;28;19912;-89
2023/10/29 12:50:04;;;;;;;;;;;;;;;;;;6301183;28;20289;-88
2023/10/29 12:53:04;;;;;;;;;;;;;;;;;;6299107;28;19924;-89
2023/10/29 12:56:04;;;;;;;;;;;;;;;;;;6297742;28;19916;-89
2023/10/29 12:59:04;;;;;;;;;;;;;;;;;;6311840;28;19984;-89
2023/10/29 13:02:05;;;;;;;;;;;;;;;;;;6305902;28;19909;-88
2023/10/29 13:05:05;;;;;;;;;;;;;;;;;;6295256;28;19920;-88
2023/10/29 13:08:05;;;;;;;;;;;;;;;;;;6308314;28;19912;-88
2023/10/29 13:11:06;;;;;;;;;;;;;;;;;;6294921;28;19913;-88
2023/10/29 13:14:06;;;;;;;;;;;;;;;;;;6304707;28;19913;-89
2023/10/29 13:17:09;;;;;;;;;;;;;;;;;;6292936;28;20317;-90
2023/10/29 13:20:09;;;;;;;;;;;;;;;;;;6303071;28;19912;-88
2023/10/29 13:23:09;;;;;;;;;;;;;;;;;;6300908;28;19919;-88
2023/10/29 13:26:09;;;;;;;;;;;;;;;;;;6303327;28;19920;-89
2023/10/29 13:29:10;;;;;;;;;;;;;;;;;;6301209;28;19920;-89
2023/10/29 13:32:10;;;;;;;;;;;;;;;;;;6301043;28;19913;-88
2023/10/29 13:35:10;;;;;;;;;;;;;;;;;;6288695;28;19920;-87
2023/10/29 13:38:10;;;;;;;;;;;;;;;;;;6289849;28;19924;-89
2023/10/29 13:41:11;;;;;;;;;;;;;;;;;;6309313;28;19923;-89
2023/10/29 13:44:15;;;;;;;;;;;;;;;;;;6306330;28;20491;-89
2023/10/29 13:47:15;;;;;;;;;;;;;;;;;;6288164;28;19920;-88
2023/10/29 13:50:15;;;;;;;;;;;;;;;;;;6284043;28;19913;-88
2023/10/29 13:53:16;;;;;;;;;;;;;;;;;;6278098;28;20354;-88
2023/10/29 13:56:16;;;;;;;;;;;;;;;;;;6283096;28;19916;-88
2023/10/29 13:59:16;;;;;;;;;;;;;;;;;;6288539;28;19916;-88
2023/10/29 14:02:16;;;;;;;;;;;;;;;;;;6299076;28;20382;-89
2023/10/29 14:05:17;;;;;;;;;;;;;;;;;;6296244;28;19912;-88
2023/10/29 14:08:17;;;;;;;;;;;;;;;;;;6308412;28;19919;-89
2023/10/29 14:11:17;;;;;;;;;;;;;;;;;;6301339;28;19909;-89
2023/10/29 14:14:17;;;;;;;;;;;;;;;;;;6303332;28;19939;-88
2023/10/29 14:17:18;;;;;;;;;;;;;;;;;;6306202;28;19952;-89
2023/10/29 14:20:18;;;;;;;;;;;;;;;;;;6293189;28;19913;-89
2023/10/29 14:23:18;;;;;;;;;;;;;;;;;;6309305;28;20366;-88
2023/10/29 14:26:18;;;;;;;;;;;;;;;;;;6319052;28;19913;-78
2023/10/29 14:29:18;;;;;;;;;;;;;;;;;;6284021;28;19939;-78
2023/10/29 14:32:19;;;;;;;;;;;;;;;;;;6292436;28;19924;-78
2023/10/29 14:35:19;;;;;;;;;;;;;;;;;;6276216;28;19913;-78
2023/10/29 14:38:20;;;;;;;;;;;;;;;;;;6274973;28;19966;-79
2023/10/29 14:41:20;;;;;;;;;;;;;;;;;;6282440;28;20378;-78
2023/10/29 14:44:21;;;;;;;;;;;;;;;;;;6295445;28;19912;-77
2023/10/29 14:47:21;;;;;;;;;;;;;;;;;;6281808;28;20003;-77
2023/10/29 14:50:22;;;;;;;;;;;;;;;;;;6282817;28;19920;-79
2023/10/29 14:53:22;;;;;;;;;;;;;;;;;;6287008;28;20298;-79
2023/10/29 14:56:22;;;;;;;;;;;;;;;;;;6272858;28;19921;-79
2023/10/29 14:59:22;;;;;;;;;;;;;;;;;;6280120;28;20283;-78
2023/10/29 15:02:22;;;;;;;;;;;;;;;;;;6287291;28;20523;-79
2023/10/29 15:05:22;;;;;;;;;;;;;;;;;;6290328;28;20286;-78
2023/10/29 15:08:22;;;;;;;;;;;;;;;;;;6286744;28;19909;-78
2023/10/29 15:11:23;;;;;;;;;;;;;;;;;;6276309;28;19978;-78
2023/10/29 15:14:23;;;;;;;;;;;;;;;;;;6291017;28;19919;-78
2023/10/29 15:17:23;;;;;;;;;;;;;;;;;;6280237;28;19916;-78
2023/10/29 15:20:23;;;;;;;;;;;;;;;;;;6281076;28;19912;-78
2023/10/29 15:23:23;;;;;;;;;;;;;;;;;;6292344;28;19924;-79
2023/10/29 15:26:24;;;;;;;;;;;;;;;;;;6273459;28;19917;-78
2023/10/29 15:29:24;;;;;;;;;;;;;;;;;;6283566;28;19912;-79
2023/10/29 15:32:24;;;;;;;;;;;;;;;;;;6281473;28;19912;-78
2023/10/29 15:35:24;;;;;;;;;;;;;;;;;;6290975;28;19954;-79
2023/10/29 15:38:24;;;;;;;;;;;;;;;;;;6286044;28;19916;-78
2023/10/29 15:41:25;;;;;;;;;;;;;;;;;;6289239;28;19909;-77
2023/10/29 15:44:26;;;;;;;;;;;;;;;;;;6282223;28;20386;-78
2023/10/29 15:47:26;;;;;;;;;;;;;;;;;;6293484;28;19959;-87
2023/10/29 15:50:26;;;;;;;;;;;;;;;;;;6307935;28;20345;-87
2023/10/29 15:53:27;;;;;;;;;;;;;;;;;;6281272;28;19912;-89
2023/10/29 15:56:27;;;;;;;;;;;;;;;;;;6289508;28;19999;-89
2023/10/29 15:59:28;;;;;;;;;;;;;;;;;;6288047;28;19917;-88
2023/10/29 16:02:29;;;;;;;;;;;;;;;;;;6284018;28;19958;-88
2023/10/29 16:05:29;;;;;;;;;;;;;;;;;;6287020;28;19923;-87
2023/10/29 16:08:29;;;;;;;;;;;;;;;;;;6289093;28;19912;-87
2023/10/29 16:11:29;;;;;;;;;;;;;;;;;;6294389;28;19923;-87
2023/10/29 16:14:30;;;;;;;;;;;;;;;;;;6303827;28;19912;-87
2023/10/29 16:17:30;;;;;;;;;;;;;;;;;;6296533;28;20270;-88
2023/10/29 16:20:30;;;;;;;;;;;;;;;;;;6288196;28;20588;-88
2023/10/29 16:23:30;;;;;;;;;;;;;;;;;;6287822;28;19913;-87
2023/10/29 16:26:30;;;;;;;;;;;;;;;;;;6286545;28;20019;-88
2023/10/29 16:29:30;;;;;;;;;;;;;;;;;;6296764;28;19919;-88
2023/10/29 16:32:30;;;;;;;;;;;;;;;;;;6294340;28;20427;-88
2023/10/29 16:35:30;;;;;;;;;;;;;;;;;;6288972;28;20000;-89
2023/10/29 16:38:31;;;;;;;;;;;;;;;;;;6286943;28;20015;-89
2023/10/29 16:41:31;;;;;;;;;;;;;;;;;;6283986;28;20378;-89
2023/10/29 16:44:31;;;;;;;;;;;;;;;;;;6288418;28;20014;-89
2023/10/29 16:47:31;;;;;;;;;;;;;;;;;;6282664;28;19912;-88
2023/10/29 16:50:31;;;;;;;;;;;;;;;;;;6282702;28;19923;-87
2023/10/29 16:53:31;;;;;;;;;;;;;;;;;;6303171;28;19923;-88
2023/10/29 16:56:32;;;;;;;;;;;;;;;;;;6292850;28;19956;-88
2023/10/29 16:59:32;;;;;;;;;;;;;;;;;;6279931;28;19924;-87
2023/10/29 17:02:32;;;;;;;;;;;;;;;;;;6284620;28;20014;-88
2023/10/29 17:05:32;;;;;;;;;;;;;;;;;;6285795;28;19913;-87
2023/10/29 17:08:32;;;;;;;;;;;;;;;;;;6277482;28;19912;-78
2023/10/29 17:11:32;;;;;;;;;;;;;;;;;;6270411;28;19999;-79
2023/10/29 17:14:32;;;;;;;;;;;;;;;;;;6289884;28;20343;-79
2023/10/29 17:17:33;;;;;;;;;;;;;;;;;;6269329;28;19924;-79
2023/10/29 17:20:33;;;;;;;;;;;;;;;;;;6288505;28;19955;-78
2023/10/29 17:23:33;;;;;;;;;;;;;;;;;;6287776;28;19908;-78
2023/10/29 17:26:33;;;;;;;;;;;;;;;;;;6280567;28;19952;-79
2023/10/29 17:29:33;;;;;;;;;;;;;;;;;;6277165;28;19919;-78
2023/10/29 17:32:33;;;;;;;;;;;;;;;;;;6295275;28;19999;-79
2023/10/29 17:35:34;;;;;;;;;;;;;;;;;;6280305;28;19912;-79
2023/10/29 17:38:34;;;;;;;;;;;;;;;;;;6277483;28;20370;-79
2023/10/29 17:41:34;;;;;;;;;;;;;;;;;;6286150;28;19913;-78
2023/10/29 17:44:35;;;;;;;;;;;;;;;;;;6282997;28;19935;-79
2023/10/29 17:47:35;;;;;;;;;;;;;;;;;;6288841;28;19916;-79
2023/10/29 17:50:35;;;;;;;;;;;;;;;;;;6273136;28;19963;-79
2023/10/29 17:53:35;;;;;;;;;;;;;;;;;;6286323;28;19912;-78
2023/10/29 17:56:35;;;;;;;;;;;;;;;;;;6285324;28;19912;-79
2023/10/29 17:59:35;;;;;;;;;;;;;;;;;;6290403;28;19930;-78
2023/10/29 18:02:40;;;;;;;;;;;;;;;;;;6282168;28;20350;-79
2023/10/29 18:05:40;;;;;;;;;;;;;;;;;;6279809;28;20310;-79
2023/10/29 18:08:43;;;;;;;;;;;;;;;;;;6278520;28;19924;-78
2023/10/29 18:11:43;;;;;;;;;;;;;;;;;;6281788;28;19920;-78
2023/10/29 18:14:43;;;;;;;;;;;;;;;;;;6274300;28;19913;-78
2023/10/29 18:17:43;;;;;;;;;;;;;;;;;;6276187;28;20340;-78
2023/10/29 18:20:44;;;;;;;;;;;;;;;;;;6283055;28;20396;-78
2023/10/29 18:23:44;;;;;;;;;;;;;;;;;;6287452;28;20046;-78
2023/10/29 18:26:44;;;;;;;;;;;;;;;;;;6279085;28;19924;-88
2023/10/29 18:29:44;;;;;;;;;;;;;;;;;;6289035;28;19912;-87
2023/10/29 18:32:44;;;;;;;;;;;;;;;;;;6289989;28;19920;-87
2023/10/29 18:35:45;;;;;;;;;;;;;;;;;;6287629;28;20005;-86
2023/10/29 18:38:45;;;;;;;;;;;;;;;;;;6291106;28;19916;-78
2023/10/29 18:41:45;;;;;;;;;;;;;;;;;;6276082;28;19987;-78
2023/10/29 18:44:45;;;;;;;;;;;;;;;;;;6283228;28;20345;-79
2023/10/29 18:47:45;;;;;;;;;;;;;;;;;;6279023;28;19935;-79
2023/10/29 18:50:45;;;;;;;;;;;;;;;;;;6288613;28;19963;-79
2023/10/29 18:53:45;;;;;;;;;;;;;;;;;;6283792;28;19957;-79
2023/10/29 18:56:45;;;;;;;;;;;;;;;;;;6292110;28;19917;-79
2023/10/29 18:59:45;;;;;;;;;;;;;;;;;;6280858;28;19935;-79
2023/10/29 19:02:46;;;;;;;;;;;;;;;;;;6290738;28;19908;-79
2023/10/29 19:05:46;;;;;;;;;;;;;;;;;;6286975;28;20286;-79
2023/10/29 19:08:46;;;;;;;;;;;;;;;;;;6291311;28;19909;-79
2023/10/29 19:11:46;;;;;;;;;;;;;;;;;;6288079;28;20542;-78
2023/10/29 19:14:46;;;;;;;;;;;;;;;;;;6292109;28;20098;-79
2023/10/29 19:17:46;;;;;;;;;;;;;;;;;;6282457;28;19987;-79
2023/10/29 19:20:46;;;;;;;;;;;;;;;;;;6289019;28;19913;-79
2023/10/29 19:23:46;;;;;;;;;;;;;;;;;;6286115;28;19917;-78
2023/10/29 19:26:47;;;;;;;;;;;;;;;;;;6283315;28;19986;-79
2023/10/29 19:29:47;;;;;;;;;;;;;;;;;;6288525;28;20341;-79
2023/10/29 19:32:47;;;;;;;;;;;;;;;;;;6287640;28;19924;-79
2023/10/29 19:35:49;;;;;;;;;;;;;;;;;;6282093;28;19987;-79
2023/10/29 19:38:49;;;;;;;;;;;;;;;;;;6282099;28;19920;-78
2023/10/29 19:41:49;;;;;;;;;;;;;;;;;;6284665;28;19909;-78
2023/10/29 19:44:50;;;;;;;;;;;;;;;;;;6281609;28;19912;-78
2023/10/29 19:47:50;;;;;;;;;;;;;;;;;;6289552;28;20328;-79
2023/10/29 19:50:50;;;;;;;;;;;;;;;;;;6276571;28;21487;-79
2023/10/29 19:53:50;;;;;;;;;;;;;;;;;;6276230;28;19917;-79
2023/10/29 19:56:51;;;;;;;;;;;;;;;;;;6276032;28;19921;-79
2023/10/29 19:59:51;;;;;;;;;;;;;;;;;;6292075;28;19924;-79
2023/10/29 20:02:51;;;;;;;;;;;;;;;;;;6283229;28;19919;-79
2023/10/29 20:05:53;;;;;;;;;;;;;;;;;;6285324;28;20388;-79
2023/10/29 20:08:55;;;;;;;;;;;;;;;;;;6291684;28;19922;-79
2023/10/29 20:11:55;;;;;;;;;;;;;;;;;;6278731;28;19917;-79
2023/10/29 20:14:55;;;;;;;;;;;;;;;;;;6276478;28;19919;-79
2023/10/29 20:17:55;;;;;;;;;;;;;;;;;;6278555;28;19924;-79
2023/10/29 20:20:56;;;;;;;;;;;;;;;;;;6278749;28;20332;-79
2023/10/29 20:23:56;;;;;;;;;;;;;;;;;;6290549;28;20338;-79
2023/10/29 20:26:56;;;;;;;;;;;;;;;;;;6269528;28;19939;-79
2023/10/29 20:29:56;;;;;;;;;;;;;;;;;;6279757;28;20202;-79